sensor_id;sensor_type;location;lat;lon;timestamp;pressure;altitude;pressure_sealevel;temperature;humidity
70437;BME280;57877;39.750;-104.894;2024-01-25T00:02:09;83439.06;;;7.59;27.82
70437;BME280;57877;39.750;-104.894;2024-01-25T00:04:34;83441.29;;;8.33;26.98
70437;BME280;57877;39.750;-104.894;2024-01-25T00:06:59;83445.69;;;7.36;27.93
70437;BME280;57877;39.750;-104.894;2024-01-25T00:09:25;83448.72;;;7.94;27.29
70437;BME280;57877;39.750;-104.894;2024-01-25T00:11:50;83453.81;;;8.14;27.08
70437;BME280;57877;39.750;-104.894;2024-01-25T00:14:15;83457.73;;;8.37;26.74
70437;BME280;57877;39.750;-104.894;2024-01-25T00:16:41;83460.49;;;8.23;26.87
70437;BME280;57877;39.750;-104.894;2024-01-25T00:19:05;83457.59;;;8.60;26.32
70437;BME280;57877;39.750;-104.894;2024-01-25T00:21:30;83459.64;;;8.63;26.31
70437;BME280;57877;39.750;-104.894;2024-01-25T00:23:56;83462.22;;;8.02;26.55
70437;BME280;57877;39.750;-104.894;2024-01-25T00:26:20;83466.18;;;7.79;27.03
70437;BME280;57877;39.750;-104.894;2024-01-25T00:28:45;83470.39;;;8.16;26.84
70437;BME280;57877;39.750;-104.894;2024-01-25T00:31:11;83476.88;;;7.96;26.83
70437;BME280;57877;39.750;-104.894;2024-01-25T00:33:35;83479.80;;;7.83;27.38
70437;BME280;57877;39.750;-104.894;2024-01-25T00:36:01;83484.80;;;8.31;26.70
70437;BME280;57877;39.750;-104.894;2024-01-25T00:38:26;83485.21;;;8.08;26.65
70437;BME280;57877;39.750;-104.894;2024-01-25T00:40:51;83482.02;;;8.07;26.59
70437;BME280;57877;39.750;-104.894;2024-01-25T00:43:16;83485.66;;;8.08;26.57
70437;BME280;57877;39.750;-104.894;2024-01-25T00:45:41;83489.88;;;8.31;26.61
70437;BME280;57877;39.750;-104.894;2024-01-25T00:48:07;83492.92;;;8.20;26.64
70437;BME280;57877;39.750;-104.894;2024-01-25T00:50:31;83493.61;;;8.19;26.66
70437;BME280;57877;39.750;-104.894;2024-01-25T00:52:57;83494.65;;;8.12;26.75
70437;BME280;57877;39.750;-104.894;2024-01-25T00:55:23;83495.62;;;8.06;26.86
70437;BME280;57877;39.750;-104.894;2024-01-25T00:57:48;83497.55;;;7.74;26.81
70437;BME280;57877;39.750;-104.894;2024-01-25T01:00:14;83496.48;;;7.96;26.89
70437;BME280;57877;39.750;-104.894;2024-01-25T01:02:42;83496.34;;;7.89;26.93
70437;BME280;57877;39.750;-104.894;2024-01-25T01:05:04;83496.85;;;7.82;26.99
70437;BME280;57877;39.750;-104.894;2024-01-25T01:07:30;83498.87;;;7.80;27.20
70437;BME280;57877;39.750;-104.894;2024-01-25T01:09:54;83504.51;;;7.36;27.44
70437;BME280;57877;39.750;-104.894;2024-01-25T01:12:19;83508.09;;;7.07;27.77
70437;BME280;57877;39.750;-104.894;2024-01-25T01:14:44;83508.25;;;7.41;27.94
70437;BME280;57877;39.750;-104.894;2024-01-25T01:17:09;83507.39;;;7.22;28.07
70437;BME280;57877;39.750;-104.894;2024-01-25T01:19:34;83506.73;;;7.06;28.32
70437;BME280;57877;39.750;-104.894;2024-01-25T01:22:00;83509.73;;;6.56;28.54
70437;BME280;57877;39.750;-104.894;2024-01-25T01:24:25;83514.01;;;6.72;28.85
70437;BME280;57877;39.750;-104.894;2024-01-25T01:26:50;83515.96;;;6.55;29.02
70437;BME280;57877;39.750;-104.894;2024-01-25T01:29:15;83520.12;;;6.47;29.04
70437;BME280;57877;39.750;-104.894;2024-01-25T01:31:40;83522.71;;;6.41;29.25
70437;BME280;57877;39.750;-104.894;2024-01-25T01:34:05;83519.91;;;6.48;29.45
70437;BME280;57877;39.750;-104.894;2024-01-25T01:36:30;83522.65;;;6.17;29.51
70437;BME280;57877;39.750;-104.894;2024-01-25T01:38:57;83521.10;;;6.40;29.60
70437;BME280;57877;39.750;-104.894;2024-01-25T01:41:21;83522.13;;;6.04;29.80
70437;BME280;57877;39.750;-104.894;2024-01-25T01:43:46;83524.87;;;6.33;29.95
70437;BME280;57877;39.750;-104.894;2024-01-25T01:46:17;83528.10;;;6.01;30.07
70437;BME280;57877;39.750;-104.894;2024-01-25T01:48:37;83527.96;;;5.78;30.14
70437;BME280;57877;39.750;-104.894;2024-01-25T01:51:02;83528.07;;;5.87;30.07
70437;BME280;57877;39.750;-104.894;2024-01-25T01:53:27;83525.47;;;5.99;30.28
70437;BME280;57877;39.750;-104.894;2024-01-25T01:55:52;83527.08;;;5.97;30.29
70437;BME280;57877;39.750;-104.894;2024-01-25T01:58:18;83527.29;;;5.65;30.45
70437;BME280;57877;39.750;-104.894;2024-01-25T02:00:43;83527.26;;;5.75;30.76
70437;BME280;57877;39.750;-104.894;2024-01-25T02:03:07;83531.58;;;5.60;30.96
70437;BME280;57877;39.750;-104.894;2024-01-25T02:05:32;83536.31;;;5.54;31.11
70437;BME280;57877;39.750;-104.894;2024-01-25T02:07:57;83540.04;;;5.29;31.20
70437;BME280;57877;39.750;-104.894;2024-01-25T02:10:22;83543.80;;;5.31;31.32
70437;BME280;57877;39.750;-104.894;2024-01-25T02:12:47;83550.39;;;5.02;31.63
70437;BME280;57877;39.750;-104.894;2024-01-25T02:15:12;83554.33;;;4.93;32.29
70437;BME280;57877;39.750;-104.894;2024-01-25T02:17:37;83556.22;;;4.87;32.52
70437;BME280;57877;39.750;-104.894;2024-01-25T02:20:02;83556.52;;;4.79;32.64
70437;BME280;57877;39.750;-104.894;2024-01-25T02:22:27;83560.34;;;4.40;32.89
70437;BME280;57877;39.750;-104.894;2024-01-25T02:24:52;83561.95;;;4.78;32.77
70437;BME280;57877;39.750;-104.894;2024-01-25T02:27:17;83561.33;;;4.94;32.60
70437;BME280;57877;39.750;-104.894;2024-01-25T02:29:42;83558.85;;;5.11;32.33
70437;BME280;57877;39.750;-104.894;2024-01-25T02:32:07;83556.13;;;4.87;32.06
70437;BME280;57877;39.750;-104.894;2024-01-25T02:34:32;83554.99;;;4.90;31.97
70437;BME280;57877;39.750;-104.894;2024-01-25T02:36:58;83552.71;;;5.37;31.71
70437;BME280;57877;39.750;-104.894;2024-01-25T02:39:28;83549.07;;;5.11;31.73
70437;BME280;57877;39.750;-104.894;2024-01-25T02:41:48;83543.41;;;4.75;32.07
70437;BME280;57877;39.750;-104.894;2024-01-25T02:44:13;83540.90;;;4.70;32.15
70437;BME280;57877;39.750;-104.894;2024-01-25T02:46:38;83538.89;;;5.07;32.24
70437;BME280;57877;39.750;-104.894;2024-01-25T02:49:03;83538.07;;;5.14;32.25
70437;BME280;57877;39.750;-104.894;2024-01-25T02:51:28;83538.06;;;4.49;32.46
70437;BME280;57877;39.750;-104.894;2024-01-25T02:53:53;83541.14;;;4.34;32.52
70437;BME280;57877;39.750;-104.894;2024-01-25T02:56:18;83542.13;;;4.56;32.64
70437;BME280;57877;39.750;-104.894;2024-01-25T02:58:43;83543.66;;;4.64;32.70
70437;BME280;57877;39.750;-104.894;2024-01-25T03:01:09;83540.09;;;4.36;32.94
70437;BME280;57877;39.750;-104.894;2024-01-25T03:03:34;83539.04;;;4.13;33.39
70437;BME280;57877;39.750;-104.894;2024-01-25T03:05:59;83534.08;;;4.19;33.28
70437;BME280;57877;39.750;-104.894;2024-01-25T03:08:24;83532.54;;;4.22;33.19
70437;BME280;57877;39.750;-104.894;2024-01-25T03:10:50;83535.61;;;4.07;33.27
70437;BME280;57877;39.750;-104.894;2024-01-25T03:13:15;83537.89;;;3.97;33.47
70437;BME280;57877;39.750;-104.894;2024-01-25T03:15:40;83536.82;;;3.85;33.57
70437;BME280;57877;39.750;-104.894;2024-01-25T03:18:05;83537.78;;;4.00;33.89
70437;BME280;57877;39.750;-104.894;2024-01-25T03:20:30;83537.15;;;3.92;33.95
70437;BME280;57877;39.750;-104.894;2024-01-25T03:22:55;83537.22;;;4.02;33.89
70437;BME280;57877;39.750;-104.894;2024-01-25T03:25:20;83532.91;;;3.77;33.98
70437;BME280;57877;39.750;-104.894;2024-01-25T03:27:45;83532.08;;;3.79;34.11
70437;BME280;57877;39.750;-104.894;2024-01-25T03:30:11;83529.97;;;3.43;34.24
70437;BME280;57877;39.750;-104.894;2024-01-25T03:32:36;83530.72;;;3.97;34.23
70437;BME280;57877;39.750;-104.894;2024-01-25T03:35:01;83527.82;;;3.69;34.57
70437;BME280;57877;39.750;-104.894;2024-01-25T03:37:26;83523.69;;;3.79;34.46
70437;BME280;57877;39.750;-104.894;2024-01-25T03:39:51;83518.32;;;2.93;35.82
70437;BME280;57877;39.750;-104.894;2024-01-25T03:42:16;83514.89;;;3.37;35.86
70437;BME280;57877;39.750;-104.894;2024-01-25T03:44:41;83517.18;;;2.88;36.08
70437;BME280;57877;39.750;-104.894;2024-01-25T03:47:06;83521.72;;;2.98;35.61
70437;BME280;57877;39.750;-104.894;2024-01-25T03:49:32;83523.28;;;3.13;35.53
70437;BME280;57877;39.750;-104.894;2024-01-25T03:51:57;83522.96;;;3.18;35.42
70437;BME280;57877;39.750;-104.894;2024-01-25T03:54:22;83526.49;;;3.18;35.45
70437;BME280;57877;39.750;-104.894;2024-01-25T03:56:47;83523.90;;;3.09;35.54
70437;BME280;57877;39.750;-104.894;2024-01-25T03:59:12;83524.33;;;3.12;35.61
70437;BME280;57877;39.750;-104.894;2024-01-25T04:01:42;83527.43;;;3.16;35.65
70437;BME280;57877;39.750;-104.894;2024-01-25T04:04:02;83526.77;;;3.23;35.52
70437;BME280;57877;39.750;-104.894;2024-01-25T04:06:27;83527.53;;;3.45;35.79
70437;BME280;57877;39.750;-104.894;2024-01-25T04:08:53;83528.80;;;3.36;35.64
70437;BME280;57877;39.750;-104.894;2024-01-25T04:11:18;83531.70;;;3.19;35.98
70437;BME280;57877;39.750;-104.894;2024-01-25T04:13:43;83532.94;;;3.25;36.10
70437;BME280;57877;39.750;-104.894;2024-01-25T04:16:08;83537.55;;;3.63;35.44
70437;BME280;57877;39.750;-104.894;2024-01-25T04:18:33;83540.95;;;3.46;35.38
70437;BME280;57877;39.750;-104.894;2024-01-25T04:20:59;83538.98;;;3.56;35.68
70437;BME280;57877;39.750;-104.894;2024-01-25T04:23:24;83542.54;;;3.69;35.53
70437;BME280;57877;39.750;-104.894;2024-01-25T04:25:49;83542.72;;;3.65;35.55
70437;BME280;57877;39.750;-104.894;2024-01-25T04:28:14;83545.30;;;3.45;35.70
70437;BME280;57877;39.750;-104.894;2024-01-25T04:30:39;83543.19;;;3.67;35.45
70437;BME280;57877;39.750;-104.894;2024-01-25T04:33:05;83541.69;;;3.74;35.33
70437;BME280;57877;39.750;-104.894;2024-01-25T04:35:30;83542.76;;;3.59;35.20
70437;BME280;57877;39.750;-104.894;2024-01-25T04:37:55;83540.12;;;3.99;34.91
70437;BME280;57877;39.750;-104.894;2024-01-25T04:40:20;83541.97;;;3.67;34.93
70437;BME280;57877;39.750;-104.894;2024-01-25T04:42:45;83540.05;;;3.81;34.80
70437;BME280;57877;39.750;-104.894;2024-01-25T04:45:11;83540.03;;;3.95;34.66
70437;BME280;57877;39.750;-104.894;2024-01-25T04:47:37;83541.97;;;4.02;34.24
70437;BME280;57877;39.750;-104.894;2024-01-25T04:50:01;83543.17;;;4.22;34.14
70437;BME280;57877;39.750;-104.894;2024-01-25T04:52:26;83545.12;;;3.93;34.42
70437;BME280;57877;39.750;-104.894;2024-01-25T04:54:51;83549.38;;;4.19;34.14
70437;BME280;57877;39.750;-104.894;2024-01-25T04:57:16;83548.64;;;4.29;33.91
70437;BME280;57877;39.750;-104.894;2024-01-25T04:59:41;83550.14;;;4.52;33.97
70437;BME280;57877;39.750;-104.894;2024-01-25T05:02:06;83550.49;;;4.77;33.88
70437;BME280;57877;39.750;-104.894;2024-01-25T05:04:31;83551.54;;;4.53;33.83
70437;BME280;57877;39.750;-104.894;2024-01-25T05:06:56;83555.44;;;4.52;33.93
70437;BME280;57877;39.750;-104.894;2024-01-25T05:09:22;83559.50;;;4.22;34.00
70437;BME280;57877;39.750;-104.894;2024-01-25T05:11:47;83561.32;;;4.23;34.19
70437;BME280;57877;39.750;-104.894;2024-01-25T05:14:12;83564.56;;;4.55;34.06
70437;BME280;57877;39.750;-104.894;2024-01-25T05:16:37;83564.51;;;4.40;34.08
70437;BME280;57877;39.750;-104.894;2024-01-25T05:19:02;83565.21;;;4.48;33.93
70437;BME280;57877;39.750;-104.894;2024-01-25T05:21:27;83563.64;;;4.54;33.84
70437;BME280;57877;39.750;-104.894;2024-01-25T05:23:53;83557.64;;;4.01;34.66
70437;BME280;57877;39.750;-104.894;2024-01-25T05:26:18;83558.86;;;3.69;35.19
70437;BME280;57877;39.750;-104.894;2024-01-25T05:28:43;83557.60;;;3.84;34.97
70437;BME280;57877;39.750;-104.894;2024-01-25T05:31:08;83556.53;;;3.93;34.71
70437;BME280;57877;39.750;-104.894;2024-01-25T05:33:33;83557.16;;;3.72;35.55
70437;BME280;57877;39.750;-104.894;2024-01-25T05:35:58;83556.69;;;3.02;36.17
70437;BME280;57877;39.750;-104.894;2024-01-25T05:38:23;83552.91;;;3.44;35.99
70437;BME280;57877;39.750;-104.894;2024-01-25T05:40:49;83550.68;;;3.41;35.71
70437;BME280;57877;39.750;-104.894;2024-01-25T05:43:14;83550.68;;;3.61;35.71
70437;BME280;57877;39.750;-104.894;2024-01-25T05:45:39;83550.92;;;3.56;35.77
70437;BME280;57877;39.750;-104.894;2024-01-25T05:48:05;83551.32;;;3.00;36.41
70437;BME280;57877;39.750;-104.894;2024-01-25T05:50:30;83554.39;;;3.39;35.94
70437;BME280;57877;39.750;-104.894;2024-01-25T05:52:54;83552.59;;;3.62;35.58
70437;BME280;57877;39.750;-104.894;2024-01-25T05:55:20;83552.50;;;3.20;35.73
70437;BME280;57877;39.750;-104.894;2024-01-25T05:57:45;83552.14;;;3.52;35.68
70437;BME280;57877;39.750;-104.894;2024-01-25T06:00:12;83551.80;;;3.44;35.74
70437;BME280;57877;39.750;-104.894;2024-01-25T06:02:35;83553.26;;;3.23;35.67
70437;BME280;57877;39.750;-104.894;2024-01-25T06:05:00;83554.73;;;3.35;35.91
70437;BME280;57877;39.750;-104.894;2024-01-25T06:07:25;83559.56;;;3.21;35.94
70437;BME280;57877;39.750;-104.894;2024-01-25T06:09:50;83565.74;;;2.86;36.31
70437;BME280;57877;39.750;-104.894;2024-01-25T06:12:16;83571.87;;;2.63;36.50
70437;BME280;57877;39.750;-104.894;2024-01-25T06:14:41;83575.36;;;2.81;36.76
70437;BME280;57877;39.750;-104.894;2024-01-25T06:17:06;83576.14;;;2.38;37.63
70437;BME280;57877;39.750;-104.894;2024-01-25T06:19:31;83576.31;;;2.13;37.89
70437;BME280;57877;39.750;-104.894;2024-01-25T06:21:56;83576.05;;;2.59;37.23
70437;BME280;57877;39.750;-104.894;2024-01-25T06:24:21;83575.90;;;2.17;37.93
70437;BME280;57877;39.750;-104.894;2024-01-25T06:26:47;83575.68;;;2.22;38.20
70437;BME280;57877;39.750;-104.894;2024-01-25T06:29:12;83570.68;;;2.55;37.52
70437;BME280;57877;39.750;-104.894;2024-01-25T06:31:42;83566.10;;;2.65;37.28
70437;BME280;57877;39.750;-104.894;2024-01-25T06:34:02;83566.96;;;2.59;37.35
70437;BME280;57877;39.750;-104.894;2024-01-25T06:36:27;83563.04;;;2.60;37.42
70437;BME280;57877;39.750;-104.894;2024-01-25T06:38:52;83559.80;;;2.52;37.42
70437;BME280;57877;39.750;-104.894;2024-01-25T06:41:17;83552.55;;;2.36;37.86
70437;BME280;57877;39.750;-104.894;2024-01-25T06:43:43;83546.50;;;1.54;39.82
70437;BME280;57877;39.750;-104.894;2024-01-25T06:46:08;83544.27;;;1.37;40.12
70437;BME280;57877;39.750;-104.894;2024-01-25T06:48:33;83547.37;;;1.59;40.28
70437;BME280;57877;39.750;-104.894;2024-01-25T06:50:58;83545.53;;;1.58;39.61
70437;BME280;57877;39.750;-104.894;2024-01-25T06:53:23;83545.05;;;1.73;39.37
70437;BME280;57877;39.750;-104.894;2024-01-25T06:55:48;83548.88;;;1.03;40.50
70437;BME280;57877;39.750;-104.894;2024-01-25T06:58:14;83549.10;;;1.76;39.92
70437;BME280;57877;39.750;-104.894;2024-01-25T07:00:39;83550.68;;;1.85;39.18
70437;BME280;57877;39.750;-104.894;2024-01-25T07:03:04;83547.58;;;1.86;38.82
70437;BME280;57877;39.750;-104.894;2024-01-25T07:05:29;83548.15;;;1.96;38.50
70437;BME280;57877;39.750;-104.894;2024-01-25T07:07:54;83543.39;;;2.14;38.13
70437;BME280;57877;39.750;-104.894;2024-01-25T07:10:20;83542.64;;;2.43;37.92
70437;BME280;57877;39.750;-104.894;2024-01-25T07:12:45;83543.32;;;2.35;37.87
70437;BME280;57877;39.750;-104.894;2024-01-25T07:15:10;83541.58;;;2.04;38.39
70437;BME280;57877;39.750;-104.894;2024-01-25T07:17:35;83543.15;;;2.23;38.18
70437;BME280;57877;39.750;-104.894;2024-01-25T07:20:00;83543.79;;;2.25;37.82
70437;BME280;57877;39.750;-104.894;2024-01-25T07:22:25;83545.22;;;2.45;37.69
70437;BME280;57877;39.750;-104.894;2024-01-25T07:24:51;83545.27;;;2.54;37.47
70437;BME280;57877;39.750;-104.894;2024-01-25T07:27:16;83543.74;;;2.45;37.10
70437;BME280;57877;39.750;-104.894;2024-01-25T07:29:43;83535.27;;;2.49;37.37
70437;BME280;57877;39.750;-104.894;2024-01-25T07:32:06;83533.88;;;2.51;37.36
70437;BME280;57877;39.750;-104.894;2024-01-25T07:34:31;83533.82;;;2.29;37.21
70437;BME280;57877;39.750;-104.894;2024-01-25T07:36:56;83531.80;;;2.55;37.16
70437;BME280;57877;39.750;-104.894;2024-01-25T07:39:21;83527.12;;;2.53;37.10
70437;BME280;57877;39.750;-104.894;2024-01-25T07:41:46;83523.52;;;2.34;37.14
70437;BME280;57877;39.750;-104.894;2024-01-25T07:44:12;83518.67;;;2.75;36.83
70437;BME280;57877;39.750;-104.894;2024-01-25T07:46:37;83521.72;;;2.29;37.47
70437;BME280;57877;39.750;-104.894;2024-01-25T07:49:02;83519.89;;;2.47;37.21
70437;BME280;57877;39.750;-104.894;2024-01-25T07:51:27;83520.54;;;2.19;37.25
70437;BME280;57877;39.750;-104.894;2024-01-25T07:53:52;83518.58;;;2.47;36.89
70437;BME280;57877;39.750;-104.894;2024-01-25T07:56:17;83517.68;;;2.54;36.96
70437;BME280;57877;39.750;-104.894;2024-01-25T07:58:42;83515.35;;;1.87;38.03
70437;BME280;57877;39.750;-104.894;2024-01-25T08:01:08;83517.06;;;1.48;38.94
70437;BME280;57877;39.750;-104.894;2024-01-25T08:03:33;83515.52;;;1.85;38.83
70437;BME280;57877;39.750;-104.894;2024-01-25T08:05:58;83512.43;;;1.67;38.71
70437;BME280;57877;39.750;-104.894;2024-01-25T08:08:23;83510.67;;;1.50;39.25
70437;BME280;57877;39.750;-104.894;2024-01-25T08:10:48;83508.25;;;1.53;39.21
70437;BME280;57877;39.750;-104.894;2024-01-25T08:13:14;83505.04;;;1.47;39.43
70437;BME280;57877;39.750;-104.894;2024-01-25T08:15:39;83503.48;;;1.09;39.98
70437;BME280;57877;39.750;-104.894;2024-01-25T08:18:04;83504.55;;;1.30;39.15
70437;BME280;57877;39.750;-104.894;2024-01-25T08:20:29;83502.61;;;1.58;39.04
70437;BME280;57877;39.750;-104.894;2024-01-25T08:22:54;83500.81;;;1.58;38.79
70437;BME280;57877;39.750;-104.894;2024-01-25T08:25:19;83504.14;;;1.13;39.18
70437;BME280;57877;39.750;-104.894;2024-01-25T08:27:45;83505.32;;;1.61;38.83
70437;BME280;57877;39.750;-104.894;2024-01-25T08:30:11;83508.38;;;1.71;38.39
70437;BME280;57877;39.750;-104.894;2024-01-25T08:32:35;83509.99;;;1.93;38.32
70437;BME280;57877;39.750;-104.894;2024-01-25T08:35:00;83509.04;;;1.42;38.95
70437;BME280;57877;39.750;-104.894;2024-01-25T08:37:25;83512.05;;;1.64;38.68
70437;BME280;57877;39.750;-104.894;2024-01-25T08:39:51;83511.16;;;1.57;39.00
70437;BME280;57877;39.750;-104.894;2024-01-25T08:42:16;83510.52;;;1.80;38.50
70437;BME280;57877;39.750;-104.894;2024-01-25T08:44:41;83513.21;;;1.19;39.49
70437;BME280;57877;39.750;-104.894;2024-01-25T08:47:06;83510.88;;;1.27;39.39
70437;BME280;57877;39.750;-104.894;2024-01-25T08:49:31;83518.12;;;0.72;40.54
70437;BME280;57877;39.750;-104.894;2024-01-25T08:51:57;83513.75;;;0.86;40.15
70437;BME280;57877;39.750;-104.894;2024-01-25T08:54:22;83515.69;;;0.52;40.57
70437;BME280;57877;39.750;-104.894;2024-01-25T08:56:47;83514.01;;;1.20;39.85
70437;BME280;57877;39.750;-104.894;2024-01-25T08:59:12;83512.35;;;1.06;39.95
70437;BME280;57877;39.750;-104.894;2024-01-25T09:01:37;83511.61;;;0.08;41.63
70437;BME280;57877;39.750;-104.894;2024-01-25T09:04:03;83509.16;;;0.17;41.32
70437;BME280;57877;39.750;-104.894;2024-01-25T09:06:28;83510.47;;;0.59;40.87
70437;BME280;57877;39.750;-104.894;2024-01-25T09:08:53;83507.31;;;0.61;40.89
70437;BME280;57877;39.750;-104.894;2024-01-25T09:11:19;83508.85;;;0.41;41.11
70437;BME280;57877;39.750;-104.894;2024-01-25T09:13:43;83508.75;;;0.69;40.68
70437;BME280;57877;39.750;-104.894;2024-01-25T09:16:09;83509.28;;;0.75;40.44
70437;BME280;57877;39.750;-104.894;2024-01-25T09:18:34;83509.34;;;0.80;40.21
70437;BME280;57877;39.750;-104.894;2024-01-25T09:20:59;83507.15;;;1.03;39.69
70437;BME280;57877;39.750;-104.894;2024-01-25T09:23:24;83509.31;;;1.15;39.43
70437;BME280;57877;39.750;-104.894;2024-01-25T09:25:49;83508.62;;;0.93;39.83
70437;BME280;57877;39.750;-104.894;2024-01-25T09:28:15;83508.90;;;1.15;39.50
70437;BME280;57877;39.750;-104.894;2024-01-25T09:30:40;83509.38;;;1.14;39.35
70437;BME280;57877;39.750;-104.894;2024-01-25T09:33:05;83511.63;;;1.09;38.99
70437;BME280;57877;39.750;-104.894;2024-01-25T09:35:30;83510.20;;;1.01;39.35
70437;BME280;57877;39.750;-104.894;2024-01-25T09:37:55;83505.93;;;1.00;39.02
70437;BME280;57877;39.750;-104.894;2024-01-25T09:40:21;83502.99;;;0.91;39.37
70437;BME280;57877;39.750;-104.894;2024-01-25T09:42:46;83502.59;;;1.06;39.20
70437;BME280;57877;39.750;-104.894;2024-01-25T09:45:12;83505.07;;;0.97;38.86
70437;BME280;57877;39.750;-104.894;2024-01-25T09:47:36;83507.96;;;0.68;39.55
70437;BME280;57877;39.750;-104.894;2024-01-25T09:50:01;83509.74;;;0.83;39.58
70437;BME280;57877;39.750;-104.894;2024-01-25T09:52:28;83516.76;;;0.47;40.07
70437;BME280;57877;39.750;-104.894;2024-01-25T09:54:53;83520.37;;;0.60;39.66
70437;BME280;57877;39.750;-104.894;2024-01-25T09:57:22;83522.03;;;0.66;39.49
70437;BME280;57877;39.750;-104.894;2024-01-25T09:59:42;83522.19;;;0.69;39.42
70437;BME280;57877;39.750;-104.894;2024-01-25T10:02:09;83522.39;;;0.49;39.40
70437;BME280;57877;39.750;-104.894;2024-01-25T10:04:32;83518.88;;;0.43;39.35
70437;BME280;57877;39.750;-104.894;2024-01-25T10:06:59;83521.21;;;0.45;39.35
70437;BME280;57877;39.750;-104.894;2024-01-25T10:09:23;83521.33;;;0.26;39.01
70437;BME280;57877;39.750;-104.894;2024-01-25T10:11:48;83519.99;;;0.25;39.37
70437;BME280;57877;39.750;-104.894;2024-01-25T10:14:13;83515.91;;;0.70;39.51
70437;BME280;57877;39.750;-104.894;2024-01-25T10:16:39;83512.59;;;0.44;39.25
70437;BME280;57877;39.750;-104.894;2024-01-25T10:19:06;83514.08;;;0.40;39.72
70437;BME280;57877;39.750;-104.894;2024-01-25T10:21:29;83512.46;;;0.35;39.72
70437;BME280;57877;39.750;-104.894;2024-01-25T10:23:55;83511.10;;;0.14;40.02
70437;BME280;57877;39.750;-104.894;2024-01-25T10:26:19;83513.41;;;0.15;40.62
70437;BME280;57877;39.750;-104.894;2024-01-25T10:28:52;83517.32;;;-0.16;40.90
70437;BME280;57877;39.750;-104.894;2024-01-25T10:31:10;83514.32;;;0.03;41.29
70437;BME280;57877;39.750;-104.894;2024-01-25T10:33:35;83515.41;;;-0.13;40.88
70437;BME280;57877;39.750;-104.894;2024-01-25T10:36:01;83510.65;;;-0.27;40.94
70437;BME280;57877;39.750;-104.894;2024-01-25T10:38:26;83510.58;;;0.02;40.77
70437;BME280;57877;39.750;-104.894;2024-01-25T10:40:50;83509.03;;;0.12;40.36
70437;BME280;57877;39.750;-104.894;2024-01-25T10:43:15;83511.88;;;0.13;40.53
70437;BME280;57877;39.750;-104.894;2024-01-25T10:45:41;83512.85;;;0.21;40.44
70437;BME280;57877;39.750;-104.894;2024-01-25T10:48:07;83514.44;;;-0.28;40.05
70437;BME280;57877;39.750;-104.894;2024-01-25T10:50:31;83514.15;;;-0.14;40.70
70437;BME280;57877;39.750;-104.894;2024-01-25T10:52:57;83512.55;;;0.10;40.60
70437;BME280;57877;39.750;-104.894;2024-01-25T10:55:22;83511.37;;;-0.48;40.18
70437;BME280;57877;39.750;-104.894;2024-01-25T10:57:47;83511.16;;;0.05;40.56
70437;BME280;57877;39.750;-104.894;2024-01-25T11:00:14;83511.15;;;-0.05;40.77
70437;BME280;57877;39.750;-104.894;2024-01-25T11:02:38;83513.09;;;-0.46;41.39
70437;BME280;57877;39.750;-104.894;2024-01-25T11:05:07;83510.41;;;-0.34;41.05
70437;BME280;57877;39.750;-104.894;2024-01-25T11:07:27;83515.50;;;-0.69;41.45
70437;BME280;57877;39.750;-104.894;2024-01-25T11:09:53;83511.84;;;-0.24;40.48
70437;BME280;57877;39.750;-104.894;2024-01-25T11:12:19;83517.83;;;-0.15;40.16
70437;BME280;57877;39.750;-104.894;2024-01-25T11:14:43;83519.44;;;-0.48;40.92
70437;BME280;57877;39.750;-104.894;2024-01-25T11:17:18;83519.20;;;-0.91;42.42
70437;BME280;57877;39.750;-104.894;2024-01-25T11:19:34;83517.22;;;-0.58;41.42
70437;BME280;57877;39.750;-104.894;2024-01-25T11:22:03;83515.38;;;-0.25;41.10
70437;BME280;57877;39.750;-104.894;2024-01-25T11:24:24;83513.10;;;-0.67;41.69
70437;BME280;57877;39.750;-104.894;2024-01-25T11:26:50;83515.18;;;-0.69;41.24
70437;BME280;57877;39.750;-104.894;2024-01-25T11:29:15;83513.02;;;-0.56;41.77
70437;BME280;57877;39.750;-104.894;2024-01-25T11:31:39;83514.63;;;-0.74;41.15
70437;BME280;57877;39.750;-104.894;2024-01-25T11:34:05;83512.52;;;-0.55;41.73
70437;BME280;57877;39.750;-104.894;2024-01-25T11:36:30;83510.75;;;-0.71;42.07
70437;BME280;57877;39.750;-104.894;2024-01-25T11:38:55;83508.63;;;-0.77;42.03
70437;BME280;57877;39.750;-104.894;2024-01-25T11:41:20;83504.54;;;-0.52;41.66
70437;BME280;57877;39.750;-104.894;2024-01-25T11:43:47;83501.22;;;-0.33;40.93
70437;BME280;57877;39.750;-104.894;2024-01-25T11:46:11;83505.10;;;-0.25;40.75
70437;BME280;57877;39.750;-104.894;2024-01-25T11:48:39;83508.78;;;-0.48;40.68
70437;BME280;57877;39.750;-104.894;2024-01-25T11:51:01;83507.57;;;-0.78;41.24
70437;BME280;57877;39.750;-104.894;2024-01-25T11:53:26;83507.24;;;-0.35;40.98
70437;BME280;57877;39.750;-104.894;2024-01-25T11:55:52;83513.60;;;-0.25;40.67
70437;BME280;57877;39.750;-104.894;2024-01-25T11:58:17;83512.87;;;0.20;39.81
70437;BME280;57877;39.750;-104.894;2024-01-25T12:00:42;83511.30;;;0.04;40.01
70437;BME280;57877;39.750;-104.894;2024-01-25T12:03:07;83505.67;;;0.14;39.85
70437;BME280;57877;39.750;-104.894;2024-01-25T12:05:32;83504.36;;;0.15;39.72
70437;BME280;57877;39.750;-104.894;2024-01-25T12:07:58;83506.02;;;-0.29;39.70
70437;BME280;57877;39.750;-104.894;2024-01-25T12:10:23;83508.00;;;-0.26;39.50
70437;BME280;57877;39.750;-104.894;2024-01-25T12:12:49;83508.64;;;-0.12;39.18
70437;BME280;57877;39.750;-104.894;2024-01-25T12:15:13;83504.06;;;-0.11;38.76
70437;BME280;57877;39.750;-104.894;2024-01-25T12:17:38;83504.00;;;-0.70;39.55
70437;BME280;57877;39.750;-104.894;2024-01-25T12:20:04;83506.35;;;-0.32;39.38
70437;BME280;57877;39.750;-104.894;2024-01-25T12:22:29;83502.02;;;-0.62;39.68
70437;BME280;57877;39.750;-104.894;2024-01-25T12:24:55;83497.70;;;-0.33;39.33
70437;BME280;57877;39.750;-104.894;2024-01-25T12:27:20;83505.40;;;-1.20;41.02